createdAt,value
2019-03-28T00:00:56.853Z,10.30
2019-03-28T00:03:25.288Z,10.50
2019-03-28T00:05:53.731Z,10.77
2019-03-28T00:08:22.158Z,15.43
2019-03-28T00:10:50.656Z,11.37
2019-03-28T00:13:19.022Z,13.30
2019-03-28T00:15:47.038Z,16.60
2019-03-28T00:18:15.231Z,15.40
2019-03-28T00:20:43.869Z,11.00
2019-03-28T00:23:32.157Z,10.00
2019-03-28T00:26:00.678Z,11.10
2019-03-28T00:28:28.905Z,11.03
2019-03-28T00:30:57.170Z,10.90
2019-03-28T00:33:26.029Z,10.67
2019-03-28T00:35:54.427Z,10.40
2019-03-28T00:38:22.995Z,20.70
2019-03-28T00:41:09.460Z,10.77
2019-03-28T00:43:37.687Z,13.30
2019-03-28T00:46:08.034Z,10.20
2019-03-28T00:48:36.249Z,11.33
2019-03-28T00:51:04.745Z,10.97
2019-03-28T00:53:33.126Z,12.87
2019-03-28T00:56:01.403Z,9.50
2019-03-28T00:58:29.645Z,11.17
2019-03-28T01:00:58.118Z,11.30
2019-03-28T01:03:26.552Z,15.13
2019-03-28T01:05:54.975Z,13.73
2019-03-28T01:08:23.711Z,13.23
2019-03-28T01:10:52.163Z,10.40
2019-03-28T01:13:20.606Z,9.50
2019-03-28T01:15:49.306Z,10.83
2019-03-28T01:18:17.623Z,10.67
2019-03-28T01:20:45.923Z,11.50
2019-03-28T01:23:14.928Z,11.93
2019-03-28T01:25:43.128Z,13.07
2019-03-28T01:28:11.317Z,13.10
2019-03-28T01:30:39.555Z,14.87
2019-03-28T01:33:07.747Z,11.43
2019-03-28T01:35:35.968Z,12.10
2019-03-28T01:38:04.591Z,12.37
2019-03-28T01:40:33.063Z,12.13
2019-03-28T01:43:02.114Z,13.93
2019-03-28T01:45:30.449Z,9.63
2019-03-28T01:47:58.838Z,13.53
2019-03-28T01:50:27.634Z,8.90
2019-03-28T01:52:55.884Z,8.30
2019-03-28T01:55:24.762Z,11.57
2019-03-28T01:57:53.560Z,8.33
2019-03-28T02:00:21.855Z,10.50
2019-03-28T02:02:50.221Z,13.77
2019-03-28T02:05:19.007Z,10.43
2019-03-28T02:07:47.434Z,9.63
2019-03-28T02:10:15.693Z,8.73
2019-03-28T02:12:44.455Z,8.97
2019-03-28T02:15:13.337Z,10.63
2019-03-28T02:17:42.433Z,10.17
2019-03-28T02:20:11.323Z,10.23
2019-03-28T02:22:39.324Z,12.00
2019-03-28T02:25:08.083Z,10.03
2019-03-28T02:27:36.296Z,11.10
2019-03-28T02:30:05.856Z,9.90
2019-03-28T02:32:34.754Z,13.30
2019-03-28T02:35:03.853Z,10.63
2019-03-28T02:37:32.486Z,9.10
2019-03-28T02:40:00.936Z,9.97
2019-03-28T02:42:29.443Z,8.47
2019-03-28T02:44:57.466Z,9.30
2019-03-28T02:47:27.003Z,10.50
2019-03-28T02:49:55.721Z,14.00
2019-03-28T02:52:24.570Z,11.43
2019-03-28T02:54:53.290Z,11.37
2019-03-28T02:57:21.953Z,9.00
2019-03-28T02:59:50.161Z,11.90
2019-03-28T03:02:18.428Z,7.77
2019-03-28T03:04:47.189Z,9.20
2019-03-28T03:07:15.874Z,8.63
2019-03-28T03:09:44.655Z,10.40
2019-03-28T03:12:12.840Z,12.23
2019-03-28T03:14:41.221Z,7.80
2019-03-28T03:17:09.563Z,8.93
2019-03-28T03:19:38.581Z,8.67
2019-03-28T03:22:06.838Z,11.33
2019-03-28T03:24:34.821Z,7.53
2019-03-28T03:27:03.181Z,6.87
2019-03-28T03:29:31.585Z,7.87
2019-03-28T03:32:00.482Z,10.73
2019-03-28T03:34:28.753Z,10.10
2019-03-28T03:36:57.107Z,10.07
2019-03-28T03:39:25.526Z,7.47
2019-03-28T03:41:53.647Z,8.43
2019-03-28T03:44:22.057Z,8.47
2019-03-28T03:46:50.086Z,9.20
2019-03-28T03:49:18.406Z,10.77
2019-03-28T03:51:46.780Z,8.50
2019-03-28T03:54:15.551Z,10.73
2019-03-28T03:56:44.351Z,8.70
2019-03-28T03:59:13.162Z,12.50
2019-03-28T04:01:41.797Z,17.63
2019-03-28T04:04:09.859Z,10.63
2019-03-28T04:06:38.672Z,7.90
2019-03-28T04:09:07.240Z,10.67
2019-03-28T04:11:35.649Z,11.80
2019-03-28T04:14:07.400Z,9.53
2019-03-28T04:16:36.338Z,10.93
2019-03-28T04:19:05.824Z,12.33
2019-03-28T04:21:34.376Z,8.67
2019-03-28T04:24:02.511Z,9.57
2019-03-28T04:26:32.203Z,9.57
2019-03-28T04:29:00.918Z,9.90
2019-03-28T04:31:29.420Z,8.50
2019-03-28T04:33:58.490Z,12.73
2019-03-28T04:36:27.552Z,8.47
2019-03-28T04:38:55.878Z,8.80
2019-03-28T04:41:25.392Z,8.30
2019-03-28T04:43:56.022Z,7.80
2019-03-28T04:46:25.432Z,12.47
2019-03-28T04:48:56.569Z,8.90
2019-03-28T04:51:25.312Z,10.90
2019-03-28T04:53:56.342Z,11.93
2019-03-28T04:56:24.788Z,12.43
2019-03-28T04:58:53.810Z,13.47
2019-03-28T05:01:22.355Z,11.97
2019-03-28T05:03:51.208Z,10.63
2019-03-28T05:06:24.894Z,12.83
2019-03-28T05:08:54.235Z,11.53
2019-03-28T05:11:27.282Z,14.77
2019-03-28T05:13:56.018Z,13.67
2019-03-28T05:16:31.026Z,11.77
2019-03-28T05:19:05.243Z,16.03
2019-03-28T05:21:34.369Z,13.37
2019-03-28T05:24:04.016Z,11.87
2019-03-28T05:26:33.595Z,9.70
2019-03-28T05:29:02.792Z,11.40
2019-03-28T05:31:31.742Z,9.63
2019-03-28T05:34:08.574Z,13.43
2019-03-28T05:36:37.687Z,13.87
2019-03-28T05:39:11.786Z,13.67
2019-03-28T05:41:41.384Z,13.03
2019-03-28T05:44:11.852Z,14.90
2019-03-28T05:46:40.681Z,10.37
2019-03-28T05:49:09.073Z,13.20
2019-03-28T05:51:37.632Z,10.70
2019-03-28T05:54:06.149Z,14.60
2019-03-28T05:56:34.452Z,16.00
2019-03-28T05:59:10.690Z,32.53
2019-03-28T06:01:32.987Z,23.00
2019-03-28T06:04:01.804Z,18.20
2019-03-28T06:06:30.382Z,17.90
2019-03-28T06:08:59.475Z,12.80
2019-03-28T06:11:28.539Z,10.67
2019-03-28T06:13:57.076Z,11.93
2019-03-28T06:16:25.429Z,11.73
2019-03-28T06:18:54.025Z,13.30
2019-03-28T06:21:23.606Z,16.63
2019-03-28T06:23:52.027Z,57.03
2019-03-28T06:26:20.477Z,39.23
2019-03-28T06:28:49.283Z,24.63
2019-03-28T06:31:17.978Z,23.40
2019-03-28T06:33:47.785Z,19.80
2019-03-28T06:36:16.350Z,16.93
2019-03-28T06:38:49.071Z,14.57
2019-03-28T06:41:18.227Z,13.30
2019-03-28T06:43:46.287Z,13.33
2019-03-28T06:46:15.456Z,15.90
2019-03-28T06:48:44.430Z,17.13
2019-03-28T06:51:12.590Z,14.80
2019-03-28T06:53:41.142Z,12.47
2019-03-28T06:56:09.421Z,20.07
2019-03-28T06:58:37.886Z,18.40
2019-03-28T07:01:06.899Z,11.13
2019-03-28T07:03:36.431Z,14.70
2019-03-28T07:06:10.727Z,12.80
2019-03-28T07:08:42.649Z,16.07
2019-03-28T07:11:11.361Z,18.20
2019-03-28T07:13:48.341Z,14.73
2019-03-28T07:16:17.074Z,22.67
2019-03-28T07:18:45.893Z,17.10
2019-03-28T07:21:14.247Z,20.40
2019-03-28T07:23:48.934Z,15.73
2019-03-28T07:26:19.033Z,16.80
2019-03-28T07:28:47.986Z,15.73
2019-03-28T07:31:16.780Z,19.77
2019-03-28T07:33:45.323Z,14.70
2019-03-28T07:36:13.890Z,17.93
2019-03-28T07:38:42.764Z,13.43
2019-03-28T07:41:11.159Z,15.60
2019-03-28T07:43:39.680Z,16.10
2019-03-28T07:46:10.939Z,17.60
2019-03-28T07:48:43.579Z,18.43
2019-03-28T07:51:12.795Z,18.97
2019-03-28T07:53:46.155Z,21.93
2019-03-28T07:56:15.778Z,21.07
2019-03-28T07:58:50.533Z,16.63
2019-03-28T08:01:19.662Z,23.63
2019-03-28T08:03:50.985Z,23.43
2019-03-28T08:06:30.593Z,20.70
2019-03-28T08:09:10.350Z,20.87
2019-03-28T08:11:40.976Z,22.03
2019-03-28T08:14:09.269Z,28.27
2019-03-28T08:16:37.511Z,24.80
2019-03-28T08:19:08.008Z,26.97
2019-03-28T08:21:36.682Z,24.73
2019-03-28T08:24:12.175Z,26.27
2019-03-28T08:26:41.675Z,20.43
2019-03-28T08:29:10.579Z,21.83
2019-03-28T08:31:43.735Z,27.93
2019-03-28T08:34:12.907Z,25.77
2019-03-28T08:36:47.142Z,22.30
2019-03-28T08:39:25.484Z,26.10
2019-03-28T08:41:54.675Z,27.33
2019-03-28T08:44:26.493Z,21.87
2019-03-28T08:46:56.059Z,26.40
2019-03-28T08:49:25.001Z,31.07
2019-03-28T08:51:53.832Z,39.53
2019-03-28T08:54:22.060Z,40.73
2019-03-28T08:56:52.367Z,33.33
2019-03-28T08:59:21.219Z,24.20
2019-03-28T09:01:53.664Z,24.33
2019-03-28T09:04:21.817Z,24.57
2019-03-28T09:06:50.667Z,20.77
2019-03-28T09:09:21.168Z,17.10
2019-03-28T09:11:53.020Z,22.13
2019-03-28T09:14:21.966Z,25.47
2019-03-28T09:16:50.205Z,30.07
2019-03-28T09:19:18.521Z,27.90
2019-03-28T09:21:49.778Z,26.53
2019-03-28T09:24:18.545Z,24.40
2019-03-28T09:26:47.432Z,24.90
2019-03-28T09:29:18.607Z,27.87
2019-03-28T09:31:49.555Z,32.27
2019-03-28T09:34:18.435Z,44.40
2019-03-28T09:36:47.278Z,29.50
2019-03-28T09:39:16.217Z,24.50
2019-03-28T09:41:44.867Z,24.33
2019-03-28T09:44:13.870Z,26.13
2019-03-28T09:46:43.181Z,27.77
2019-03-28T09:49:14.266Z,23.17
2019-03-28T09:51:43.286Z,24.13
2019-03-28T09:54:13.140Z,23.83
2019-03-28T09:56:41.712Z,21.50
2019-03-28T09:59:12.003Z,17.97
2019-03-28T10:01:40.439Z,21.47
2019-03-28T10:04:09.070Z,18.67
2019-03-28T10:06:47.794Z,20.07
2019-03-28T10:09:16.326Z,19.13
2019-03-28T10:11:45.253Z,19.43
2019-03-28T10:14:13.737Z,20.00
2019-03-28T10:16:45.769Z,19.93
2019-03-28T10:19:14.825Z,20.40
2019-03-28T10:21:43.666Z,24.67
2019-03-28T10:24:12.295Z,18.70
2019-03-28T10:26:40.650Z,17.20
2019-03-28T10:29:09.654Z,23.00
2019-03-28T10:31:37.967Z,38.07
2019-03-28T10:34:06.057Z,34.57
2019-03-28T10:36:34.483Z,18.73
2019-03-28T10:39:04.682Z,21.47
2019-03-28T10:41:32.865Z,24.43
2019-03-28T10:44:01.660Z,22.90
2019-03-28T10:46:30.566Z,16.10
2019-03-28T10:48:59.031Z,18.77
2019-03-28T10:51:28.489Z,17.07
2019-03-28T10:53:57.115Z,15.93
2019-03-28T10:56:26.103Z,17.70
2019-03-28T10:58:54.281Z,15.87
2019-03-28T11:01:41.710Z,13.83
2019-03-28T11:03:52.684Z,14.07
2019-03-28T11:06:21.414Z,10.97
2019-03-28T11:08:49.504Z,14.40
2019-03-28T11:11:17.989Z,14.90
2019-03-28T11:13:50.869Z,11.97
2019-03-28T11:16:19.484Z,13.70
2019-03-28T11:18:50.015Z,15.20
2019-03-28T11:21:19.547Z,16.10
2019-03-28T11:23:48.133Z,74.93
2019-03-28T11:26:16.953Z,22.00
2019-03-28T11:28:45.365Z,15.50
2019-03-28T11:31:13.876Z,13.10
2019-03-28T11:33:42.029Z,16.33
2019-03-28T11:36:10.665Z,13.43
2019-03-28T11:38:39.099Z,13.53
2019-03-28T11:41:07.378Z,12.47
2019-03-28T11:43:35.877Z,13.43
2019-03-28T11:46:05.514Z,11.30
2019-03-28T11:48:33.651Z,11.97
2019-03-28T11:51:02.360Z,12.17
2019-03-28T11:53:30.599Z,11.97
2019-03-28T11:55:59.303Z,14.47
2019-03-28T11:58:27.805Z,14.70
2019-03-28T12:00:56.137Z,14.67
2019-03-28T12:03:24.325Z,10.30
2019-03-28T12:05:53.239Z,10.30
2019-03-28T12:08:22.094Z,6.93
2019-03-28T12:10:50.382Z,11.83
2019-03-28T12:13:18.467Z,9.83
2019-03-28T12:15:46.836Z,9.63
2019-03-28T12:18:15.176Z,11.37
2019-03-28T12:20:45.572Z,9.07
2019-03-28T12:23:14.004Z,11.00
2019-03-28T12:25:41.932Z,10.57
2019-03-28T12:28:10.379Z,8.50
2019-03-28T12:30:39.089Z,9.53
2019-03-28T12:33:07.521Z,7.37
2019-03-28T12:35:35.801Z,9.63
2019-03-28T12:38:04.457Z,7.40
2019-03-28T12:40:32.967Z,11.40
2019-03-28T12:43:01.428Z,11.90
2019-03-28T12:45:30.364Z,9.03
2019-03-28T12:47:59.854Z,8.20
2019-03-28T12:50:28.162Z,6.40
2019-03-28T12:52:58.321Z,8.30
2019-03-28T12:55:26.668Z,8.20
2019-03-28T12:57:55.237Z,9.80
2019-03-28T13:00:36.871Z,8.83
2019-03-28T13:03:05.303Z,14.40
2019-03-28T13:05:34.813Z,11.87
2019-03-28T13:08:04.173Z,7.23
2019-03-28T13:10:33.785Z,8.23
2019-03-28T13:13:01.729Z,10.30
2019-03-28T13:15:29.925Z,9.97
2019-03-28T13:17:58.127Z,12.33
2019-03-28T13:20:26.682Z,10.30
2019-03-28T13:22:56.522Z,8.13
2019-03-28T13:25:24.899Z,9.40
2019-03-28T13:27:53.998Z,11.60
2019-03-28T13:30:22.533Z,15.10
2019-03-28T13:32:51.660Z,14.50
2019-03-28T13:35:20.445Z,13.43
2019-03-28T13:37:49.312Z,17.97
2019-03-28T13:40:17.679Z,16.00
2019-03-28T13:42:46.049Z,15.03
2019-03-28T13:45:14.672Z,13.23
2019-03-28T13:47:43.581Z,14.00
2019-03-28T13:50:12.356Z,14.03
2019-03-28T13:52:40.790Z,13.03
2019-03-28T13:55:09.613Z,13.47
2019-03-28T13:57:37.886Z,11.23
2019-03-28T14:00:10.377Z,13.10
2019-03-28T14:02:39.148Z,12.30
2019-03-28T14:05:07.821Z,15.07
2019-03-28T14:07:36.088Z,10.73
2019-03-28T14:10:04.784Z,11.47
2019-03-28T14:12:32.704Z,12.03
2019-03-28T14:15:01.289Z,13.23
2019-03-28T14:17:29.778Z,14.40
2019-03-28T14:19:58.085Z,14.50
2019-03-28T14:22:26.645Z,16.10
2019-03-28T14:24:55.061Z,15.73
2019-03-28T14:27:23.537Z,15.20
2019-03-28T14:29:52.398Z,14.63
2019-03-28T14:32:20.615Z,23.83
2019-03-28T14:34:48.891Z,15.70
2019-03-28T14:37:17.723Z,18.93
2019-03-28T14:39:49.061Z,13.23
2019-03-28T14:42:19.543Z,11.07
2019-03-28T14:44:46.933Z,12.90
2019-03-28T14:47:15.344Z,9.17
2019-03-28T14:49:43.593Z,13.97
2019-03-28T14:52:12.131Z,9.80
2019-03-28T14:54:40.648Z,8.77
2019-03-28T14:57:10.192Z,10.80
2019-03-28T14:59:39.830Z,11.63
2019-03-28T15:02:07.979Z,13.87
2019-03-28T15:04:36.510Z,12.90
2019-03-28T15:07:07.344Z,14.20
2019-03-28T15:09:35.588Z,10.43
2019-03-28T15:12:05.673Z,16.33
2019-03-28T15:14:34.782Z,11.87
2019-03-28T15:17:03.814Z,12.97
2019-03-28T15:19:31.993Z,12.00
2019-03-28T15:22:01.132Z,14.13
2019-03-28T15:24:29.458Z,15.40
2019-03-28T15:26:58.421Z,15.77
2019-03-28T15:29:26.593Z,14.20
2019-03-28T15:31:55.118Z,15.40
2019-03-28T15:34:23.815Z,14.47
2019-03-28T15:36:55.053Z,15.13
2019-03-28T15:39:22.953Z,15.20
2019-03-28T15:41:51.110Z,14.07
2019-03-28T15:44:19.463Z,11.83
2019-03-28T15:46:47.930Z,13.17
2019-03-28T15:49:16.748Z,15.63
2019-03-28T15:51:45.335Z,12.03
2019-03-28T15:54:13.213Z,13.33
2019-03-28T15:56:41.709Z,11.93
2019-03-28T15:59:10.051Z,12.97
2019-03-28T16:01:38.215Z,12.10
2019-03-28T16:04:06.720Z,11.70
2019-03-28T16:06:35.215Z,9.43
2019-03-28T16:09:06.133Z,16.73
2019-03-28T16:11:34.488Z,12.83
2019-03-28T16:14:02.467Z,10.10
2019-03-28T16:16:30.521Z,13.40
2019-03-28T16:19:01.910Z,11.77
2019-03-28T16:21:31.608Z,9.70
2019-03-28T16:24:01.816Z,8.87
2019-03-28T16:26:30.730Z,9.80
2019-03-28T16:29:03.190Z,12.10
2019-03-28T16:31:32.200Z,11.03
2019-03-28T16:34:06.723Z,13.73
2019-03-28T16:36:32.117Z,12.30
2019-03-28T16:39:01.373Z,12.67
2019-03-28T16:41:30.642Z,13.70
2019-03-28T16:43:59.778Z,11.00
2019-03-28T16:46:29.660Z,9.67
2019-03-28T16:48:59.129Z,8.50
2019-03-28T16:51:28.396Z,11.60
2019-03-28T16:53:58.087Z,14.87
2019-03-28T16:56:27.482Z,11.30
2019-03-28T16:58:56.363Z,10.77
2019-03-28T17:01:26.051Z,9.30
2019-03-28T17:03:55.984Z,18.80
2019-03-28T17:06:24.894Z,12.43
2019-03-28T17:08:54.577Z,11.67
2019-03-28T17:11:23.656Z,11.10
2019-03-28T17:13:55.713Z,12.00
2019-03-28T17:16:24.268Z,15.10
2019-03-28T17:18:52.532Z,13.20
2019-03-28T17:21:23.313Z,13.90
2019-03-28T17:23:51.877Z,10.40
2019-03-28T17:26:20.353Z,12.00
2019-03-28T17:28:48.802Z,13.63
2019-03-28T17:31:18.893Z,12.67
2019-03-28T17:33:47.015Z,11.00
2019-03-28T17:36:15.329Z,12.00
2019-03-28T17:38:43.781Z,12.13
2019-03-28T17:41:12.038Z,12.57
2019-03-28T17:43:40.246Z,12.80
2019-03-28T17:46:12.053Z,15.13
2019-03-28T17:48:38.708Z,13.70
2019-03-28T17:51:06.779Z,10.70
2019-03-28T17:53:34.956Z,12.57
2019-03-28T17:56:03.753Z,11.73
2019-03-28T17:58:31.978Z,15.60
2019-03-28T18:01:00.319Z,12.40
2019-03-28T18:03:31.492Z,14.80
2019-03-28T18:05:59.029Z,12.70
2019-03-28T18:08:27.418Z,13.10
2019-03-28T18:10:56.540Z,13.30
2019-03-28T18:13:24.805Z,15.10
2019-03-28T18:15:53.353Z,14.27
2019-03-28T18:18:23.505Z,16.00
2019-03-28T18:20:51.472Z,16.10
2019-03-28T18:23:19.771Z,11.73
2019-03-28T18:25:48.113Z,12.40
2019-03-28T18:28:16.117Z,14.27
2019-03-28T18:30:43.985Z,21.67
2019-03-28T18:33:11.941Z,17.20
2019-03-28T18:35:40.313Z,14.23
2019-03-28T18:38:08.550Z,14.23
2019-03-28T18:40:36.867Z,17.40
2019-03-28T18:43:05.503Z,15.43
2019-03-28T18:45:34.020Z,12.13
2019-03-28T18:48:01.928Z,16.03
2019-03-28T18:50:29.825Z,18.17
2019-03-28T18:52:57.686Z,16.10
2019-03-28T18:55:25.623Z,12.97
2019-03-28T18:57:54.525Z,20.17
2019-03-28T19:00:22.994Z,21.90
2019-03-28T19:02:51.160Z,22.57
2019-03-28T19:05:20.424Z,31.97
2019-03-28T19:07:48.681Z,23.10
2019-03-28T19:10:17.801Z,28.40
2019-03-28T19:12:45.861Z,23.80
2019-03-28T19:15:14.138Z,24.70
2019-03-28T19:17:42.049Z,30.43
2019-03-28T19:20:10.865Z,28.80
2019-03-28T19:22:38.832Z,29.23
2019-03-28T19:25:08.758Z,30.10
2019-03-28T19:27:37.158Z,32.20
2019-03-28T19:30:06.357Z,27.80
2019-03-28T19:32:34.495Z,29.60
2019-03-28T19:35:03.431Z,31.13
2019-03-28T19:37:32.231Z,28.40
2019-03-28T19:40:00.445Z,29.17
2019-03-28T19:42:28.863Z,31.90
2019-03-28T19:44:57.356Z,31.83
2019-03-28T19:47:28.384Z,36.03
2019-03-28T19:49:56.386Z,28.53
2019-03-28T19:52:25.977Z,36.60
2019-03-28T19:54:54.721Z,36.00
2019-03-28T19:57:23.119Z,31.93
2019-03-28T19:59:51.805Z,32.00
2019-03-28T20:02:21.022Z,33.13
2019-03-28T20:04:49.005Z,31.13
2019-03-28T20:07:21.988Z,37.90
2019-03-28T20:09:50.872Z,34.07
2019-03-28T20:12:20.091Z,35.37
2019-03-28T20:14:48.415Z,34.47
2019-03-28T20:17:19.431Z,37.53
2019-03-28T20:19:48.169Z,37.37
2019-03-28T20:22:17.126Z,39.47
2019-03-28T20:24:45.886Z,37.97
2019-03-28T20:27:14.757Z,33.13
2019-03-28T20:29:43.302Z,36.03
2019-03-28T20:32:12.821Z,42.37
2019-03-28T20:34:43.226Z,45.87
2019-03-28T20:37:11.967Z,43.80
2019-03-28T20:39:40.189Z,38.20
2019-03-28T20:42:08.943Z,38.07
2019-03-28T20:44:37.734Z,39.53
2019-03-28T20:47:06.675Z,38.10
2019-03-28T20:49:35.546Z,37.53
2019-03-28T20:52:04.887Z,35.37
2019-03-28T20:54:35.247Z,39.83
2019-03-28T20:57:03.264Z,39.73
2019-03-28T20:59:31.372Z,37.40
2019-03-28T21:01:59.636Z,36.43
2019-03-28T21:04:31.687Z,42.03
2019-03-28T21:06:58.974Z,40.70
2019-03-28T21:09:27.113Z,38.70
2019-03-28T21:11:55.271Z,40.87
2019-03-28T21:14:23.729Z,40.40
2019-03-28T21:16:52.166Z,36.80
2019-03-28T21:19:20.504Z,38.20
2019-03-28T21:21:48.951Z,40.90
2019-03-28T21:24:17.318Z,43.17
2019-03-28T21:26:45.690Z,38.90
2019-03-28T21:29:13.936Z,43.03
2019-03-28T21:31:49.726Z,44.77
2019-03-28T21:34:12.958Z,43.43
2019-03-28T21:36:41.258Z,43.57
2019-03-28T21:39:09.280Z,47.03
2019-03-28T21:41:37.741Z,38.43
2019-03-28T21:44:06.008Z,40.27
2019-03-28T21:46:34.377Z,42.03
2019-03-28T21:49:02.607Z,41.70
2019-03-28T21:51:31.085Z,42.00
2019-03-28T21:54:00.009Z,47.30
2019-03-28T21:56:28.194Z,42.90
2019-03-28T21:58:56.885Z,46.80
2019-03-28T22:01:25.929Z,48.00
2019-03-28T22:03:54.347Z,44.90
2019-03-28T22:06:23.148Z,38.33
2019-03-28T22:08:51.555Z,43.80
2019-03-28T22:11:19.939Z,38.47
2019-03-28T22:13:48.341Z,43.67
2019-03-28T22:16:16.717Z,39.30
2019-03-28T22:18:44.661Z,40.27
2019-03-28T22:21:12.982Z,42.07
2019-03-28T22:23:41.123Z,44.27
2019-03-28T22:26:09.308Z,41.00
2019-03-28T22:28:38.043Z,36.80
2019-03-28T22:31:06.478Z,43.50
2019-03-28T22:33:34.708Z,39.50
2019-03-28T22:36:02.591Z,38.23
2019-03-28T22:38:30.821Z,41.80
2019-03-28T22:40:59.172Z,39.60
2019-03-28T22:43:27.144Z,43.27
2019-03-28T22:45:55.242Z,46.07
2019-03-28T22:48:23.407Z,38.97
2019-03-28T22:50:52.278Z,40.73
2019-03-28T22:53:20.405Z,40.10
2019-03-28T22:55:48.367Z,37.60
2019-03-28T22:58:16.906Z,37.80
2019-03-28T23:00:47.556Z,39.10
2019-03-28T23:03:16.249Z,41.30
2019-03-28T23:05:44.737Z,42.47
2019-03-28T23:08:12.593Z,44.73
2019-03-28T23:10:41.844Z,45.00
2019-03-28T23:13:09.723Z,38.77
2019-03-28T23:15:37.721Z,40.70
2019-03-28T23:18:05.716Z,39.23
2019-03-28T23:20:33.974Z,39.00
2019-03-28T23:23:02.310Z,38.93
2019-03-28T23:25:30.597Z,41.57
2019-03-28T23:27:58.830Z,47.53
2019-03-28T23:30:26.773Z,41.37
2019-03-28T23:32:55.066Z,44.40
2019-03-28T23:35:23.168Z,39.70
2019-03-28T23:37:51.167Z,41.47
2019-03-28T23:40:19.735Z,41.60
2019-03-28T23:42:47.758Z,41.87
2019-03-28T23:45:15.600Z,39.60
2019-03-28T23:47:43.636Z,40.00
2019-03-28T23:50:12.027Z,39.37
2019-03-28T23:52:40.107Z,45.07
2019-03-28T23:55:08.155Z,43.50
2019-03-28T23:57:36.127Z,43.10
